sensor_id;sensor_type;location;lat;lon;timestamp;temperature;humidity
75113;DHT22;63692;47.338;8.520;2022-11-25T05:40:01;5.60;92.80
75113;DHT22;63692;47.338;8.520;2022-11-25T05:50:08;5.50;93.20
75113;DHT22;63692;47.338;8.520;2022-11-25T05:52:34;5.50;93.40
75113;DHT22;63692;47.338;8.520;2022-11-25T05:55:00;5.40;93.40
75113;DHT22;63692;47.338;8.520;2022-11-25T05:57:25;5.40;93.40
75113;DHT22;63692;47.338;8.520;2022-11-25T05:59:52;5.40;93.50
75113;DHT22;63692;47.338;8.520;2022-11-25T06:02:18;5.30;93.40
75113;DHT22;63692;47.338;8.520;2022-11-25T06:04:44;5.40;93.50
75113;DHT22;63692;47.338;8.520;2022-11-25T06:07:09;5.40;93.50
75113;DHT22;63692;47.338;8.520;2022-11-25T06:09:35;5.50;93.30
75113;DHT22;63692;47.338;8.520;2022-11-25T06:12:00;5.50;93.30
75113;DHT22;63692;47.338;8.520;2022-11-25T06:14:26;5.50;93.30
75113;DHT22;63692;47.338;8.520;2022-11-25T06:16:52;5.50;93.30
75113;DHT22;63692;47.338;8.520;2022-11-25T06:19:17;5.50;93.20
75113;DHT22;63692;47.338;8.520;2022-11-25T06:21:43;5.50;93.10
75113;DHT22;63692;47.338;8.520;2022-11-25T06:24:09;5.50;93.10
75113;DHT22;63692;47.338;8.520;2022-11-25T06:26:34;5.50;93.00
75113;DHT22;63692;47.338;8.520;2022-11-25T06:29:00;5.60;93.10
75113;DHT22;63692;47.338;8.520;2022-11-25T06:31:25;5.50;92.90
75113;DHT22;63692;47.338;8.520;2022-11-25T06:33:52;5.50;93.00
75113;DHT22;63692;47.338;8.520;2022-11-25T06:36:19;5.50;92.90
75113;DHT22;63692;47.338;8.520;2022-11-25T06:38:47;5.60;92.90
75113;DHT22;63692;47.338;8.520;2022-11-25T06:41:13;5.50;93.10
75113;DHT22;63692;47.338;8.520;2022-11-25T06:43:39;5.50;93.20
75113;DHT22;63692;47.338;8.520;2022-11-25T06:46:15;5.50;93.20
75113;DHT22;63692;47.338;8.520;2022-11-25T06:48:41;5.50;93.20
75113;DHT22;63692;47.338;8.520;2022-11-25T06:51:09;5.50;93.10
75113;DHT22;63692;47.338;8.520;2022-11-25T06:53:36;5.50;93.20
75113;DHT22;63692;47.338;8.520;2022-11-25T06:56:17;5.50;93.20
75113;DHT22;63692;47.338;8.520;2022-11-25T06:58:44;5.50;93.10
75113;DHT22;63692;47.338;8.520;2022-11-25T07:01:16;5.50;93.10
75113;DHT22;63692;47.338;8.520;2022-11-25T07:03:43;5.50;93.10
75113;DHT22;63692;47.338;8.520;2022-11-25T07:06:12;5.40;93.30
75113;DHT22;63692;47.338;8.520;2022-11-25T07:08:38;5.30;93.40
75113;DHT22;63692;47.338;8.520;2022-11-25T07:11:14;5.40;93.40
75113;DHT22;63692;47.338;8.520;2022-11-25T07:13:40;5.30;93.30
75113;DHT22;63692;47.338;8.520;2022-11-25T07:16:06;5.40;93.40
75113;DHT22;63692;47.338;8.520;2022-11-25T07:18:34;5.40;93.40
75113;DHT22;63692;47.338;8.520;2022-11-25T07:21:05;5.30;93.40
75113;DHT22;63692;47.338;8.520;2022-11-25T07:23:32;5.30;93.50
75113;DHT22;63692;47.338;8.520;2022-11-25T07:26:12;5.30;93.40
75113;DHT22;63692;47.338;8.520;2022-11-25T07:28:39;5.20;93.40
75113;DHT22;63692;47.338;8.520;2022-11-25T07:31:13;5.20;93.40
75113;DHT22;63692;47.338;8.520;2022-11-25T07:33:39;5.20;93.60
75113;DHT22;63692;47.338;8.520;2022-11-25T07:36:07;5.20;93.60
75113;DHT22;63692;47.338;8.520;2022-11-25T07:38:34;5.10;93.60
75113;DHT22;63692;47.338;8.520;2022-11-25T07:41:11;5.10;93.60
75113;DHT22;63692;47.338;8.520;2022-11-25T07:43:38;5.10;93.60
75113;DHT22;63692;47.338;8.520;2022-11-25T07:46:30;5.20;93.70
75113;DHT22;63692;47.338;8.520;2022-11-25T07:48:59;5.20;93.60
75113;DHT22;63692;47.338;8.520;2022-11-25T07:51:29;5.20;93.70
75113;DHT22;63692;47.338;8.520;2022-11-25T07:53:56;5.10;93.80
75113;DHT22;63692;47.338;8.520;2022-11-25T07:56:22;5.10;93.80
75113;DHT22;63692;47.338;8.520;2022-11-25T07:58:48;5.10;93.70
75113;DHT22;63692;47.338;8.520;2022-11-25T08:01:15;5.10;93.70
75113;DHT22;63692;47.338;8.520;2022-11-25T08:03:43;5.10;93.70
75113;DHT22;63692;47.338;8.520;2022-11-25T08:06:11;5.20;93.60
75113;DHT22;63692;47.338;8.520;2022-11-25T08:08:39;5.30;93.60
75113;DHT22;63692;47.338;8.520;2022-11-25T08:13:32;5.30;93.40
75113;DHT22;63692;47.338;8.520;2022-11-25T08:15:59;5.40;93.40
75113;DHT22;63692;47.338;8.520;2022-11-25T08:18:25;5.30;93.40
75113;DHT22;63692;47.338;8.520;2022-11-25T08:20:51;5.40;93.40
75113;DHT22;63692;47.338;8.520;2022-11-25T08:23:16;5.30;93.50
75113;DHT22;63692;47.338;8.520;2022-11-25T08:25:42;5.40;93.50
75113;DHT22;63692;47.338;8.520;2022-11-25T08:28:08;5.50;93.50
75113;DHT22;63692;47.338;8.520;2022-11-25T08:30:34;5.60;93.30
75113;DHT22;63692;47.338;8.520;2022-11-25T08:33:00;5.70;93.10
75113;DHT22;63692;47.338;8.520;2022-11-25T08:35:26;5.80;93.00
75113;DHT22;63692;47.338;8.520;2022-11-25T08:37:52;5.90;92.90
75113;DHT22;63692;47.338;8.520;2022-11-25T08:40:18;5.90;92.70
75113;DHT22;63692;47.338;8.520;2022-11-25T08:42:43;6.00;92.60
75113;DHT22;63692;47.338;8.520;2022-11-25T08:45:10;6.10;92.40
75113;DHT22;63692;47.338;8.520;2022-11-25T08:47:36;6.20;92.40
75113;DHT22;63692;47.338;8.520;2022-11-25T08:50:06;6.20;92.30
75113;DHT22;63692;47.338;8.520;2022-11-25T08:52:31;6.20;92.60
75113;DHT22;63692;47.338;8.520;2022-11-25T08:54:57;6.20;92.50
75113;DHT22;63692;47.338;8.520;2022-11-25T08:57:23;6.30;92.50
75113;DHT22;63692;47.338;8.520;2022-11-25T08:59:48;6.30;92.40
75113;DHT22;63692;47.338;8.520;2022-11-25T09:02:15;6.40;92.30
75113;DHT22;63692;47.338;8.520;2022-11-25T09:04:41;6.40;92.20
75113;DHT22;63692;47.338;8.520;2022-11-25T09:07:07;6.40;92.30
75113;DHT22;63692;47.338;8.520;2022-11-25T09:09:33;6.50;92.40
75113;DHT22;63692;47.338;8.520;2022-11-25T09:11:58;6.50;92.50
75113;DHT22;63692;47.338;8.520;2022-11-25T09:14:24;6.60;92.40
75113;DHT22;63692;47.338;8.520;2022-11-25T09:16:50;6.60;92.30
75113;DHT22;63692;47.338;8.520;2022-11-25T09:19:15;6.70;92.00
75113;DHT22;63692;47.338;8.520;2022-11-25T09:21:44;6.80;91.90
75113;DHT22;63692;47.338;8.520;2022-11-25T09:24:09;6.80;91.90
75113;DHT22;63692;47.338;8.520;2022-11-25T09:26:35;6.90;91.80
75113;DHT22;63692;47.338;8.520;2022-11-25T09:29:04;6.90;91.60
75113;DHT22;63692;47.338;8.520;2022-11-25T09:31:30;7.00;91.40
75113;DHT22;63692;47.338;8.520;2022-11-25T09:33:56;7.00;91.10
75113;DHT22;63692;47.338;8.520;2022-11-25T09:36:22;7.10;91.00
75113;DHT22;63692;47.338;8.520;2022-11-25T09:38:48;7.10;91.00
75113;DHT22;63692;47.338;8.520;2022-11-25T09:50:22;7.50;90.10
75113;DHT22;63692;47.338;8.520;2022-11-25T09:53:16;7.50;89.90
75113;DHT22;63692;47.338;8.520;2022-11-25T09:55:49;7.60;89.70
75113;DHT22;63692;47.338;8.520;2022-11-25T09:58:28;7.60;89.40
75113;DHT22;63692;47.338;8.520;2022-11-25T10:00:55;7.70;89.50
75113;DHT22;63692;47.338;8.520;2022-11-25T10:04:08;7.70;89.60
75113;DHT22;63692;47.338;8.520;2022-11-25T10:06:42;7.80;89.50
75113;DHT22;63692;47.338;8.520;2022-11-25T10:09:13;7.80;89.20
75113;DHT22;63692;47.338;8.520;2022-11-25T10:11:49;7.80;89.00
75113;DHT22;63692;47.338;8.520;2022-11-25T10:15:07;7.80;89.40
75113;DHT22;63692;47.338;8.520;2022-11-25T10:17:48;7.90;89.80
75113;DHT22;63692;47.338;8.520;2022-11-25T10:20:27;7.90;90.10
75113;DHT22;63692;47.338;8.520;2022-11-25T10:25:45;8.00;90.20
75113;DHT22;63692;47.338;8.520;2022-11-25T10:36:13;8.00;90.40
75113;DHT22;63692;47.338;8.520;2022-11-25T10:41:17;7.90;91.00
75113;DHT22;63692;47.338;8.520;2022-11-25T10:43:45;7.90;91.20
75113;DHT22;63692;47.338;8.520;2022-11-25T10:46:29;7.90;91.60
75113;DHT22;63692;47.338;8.520;2022-11-25T10:51:47;7.80;91.90
75113;DHT22;63692;47.338;8.520;2022-11-25T10:54:27;7.90;92.30
75113;DHT22;63692;47.338;8.520;2022-11-25T10:56:54;7.90;92.40
75113;DHT22;63692;47.338;8.520;2022-11-25T10:59:32;7.90;92.20
75113;DHT22;63692;47.338;8.520;2022-11-25T11:02:22;7.90;93.00
75113;DHT22;63692;47.338;8.520;2022-11-25T11:07:19;8.10;93.10
75113;DHT22;63692;47.338;8.520;2022-11-25T11:09:44;8.10;93.00
75113;DHT22;63692;47.338;8.520;2022-11-25T11:12:23;8.10;93.50
75113;DHT22;63692;47.338;8.520;2022-11-25T11:14:50;8.10;92.00
75113;DHT22;63692;47.338;8.520;2022-11-25T11:17:33;8.20;91.90
75113;DHT22;63692;47.338;8.520;2022-11-25T11:22:48;8.30;88.10
75113;DHT22;63692;47.338;8.520;2022-11-25T11:27:45;8.50;87.10
75113;DHT22;63692;47.338;8.520;2022-11-25T11:30:17;8.50;87.60
75113;DHT22;63692;47.338;8.520;2022-11-25T11:38:35;8.80;87.40
75113;DHT22;63692;47.338;8.520;2022-11-25T11:41:14;8.90;86.30
75113;DHT22;63692;47.338;8.520;2022-11-25T11:46:48;9.00;86.70
75113;DHT22;63692;47.338;8.520;2022-11-25T11:49:39;9.00;85.70
75113;DHT22;63692;47.338;8.520;2022-11-25T11:52:28;9.10;82.80
75113;DHT22;63692;47.338;8.520;2022-11-25T12:03:23;9.20;83.20
75113;DHT22;63692;47.338;8.520;2022-11-25T12:05:50;9.10;84.10
75113;DHT22;63692;47.338;8.520;2022-11-25T12:08:29;9.20;81.50
75113;DHT22;63692;47.338;8.520;2022-11-25T12:11:03;9.20;81.20
75113;DHT22;63692;47.338;8.520;2022-11-25T12:16:09;9.30;80.70
75113;DHT22;63692;47.338;8.520;2022-11-25T12:21:46;9.40;81.50
75113;DHT22;63692;47.338;8.520;2022-11-25T12:27:04;9.30;82.50
75113;DHT22;63692;47.338;8.520;2022-11-25T12:29:51;9.20;81.80
75113;DHT22;63692;47.338;8.520;2022-11-25T12:35:33;9.20;81.90
75113;DHT22;63692;47.338;8.520;2022-11-25T12:40:35;9.20;83.10
75113;DHT22;63692;47.338;8.520;2022-11-25T12:45:50;9.30;82.90
75113;DHT22;63692;47.338;8.520;2022-11-25T12:48:18;9.20;83.20
75113;DHT22;63692;47.338;8.520;2022-11-25T12:56:26;9.30;82.40
75113;DHT22;63692;47.338;8.520;2022-11-25T13:15:51;9.30;83.70
75113;DHT22;63692;47.338;8.520;2022-11-25T13:18:29;9.20;84.20
75113;DHT22;63692;47.338;8.520;2022-11-25T13:23:28;9.20;85.40
75113;DHT22;63692;47.338;8.520;2022-11-25T13:31:33;9.10;87.00
75113;DHT22;63692;47.338;8.520;2022-11-25T13:39:34;9.10;84.70
75113;DHT22;63692;47.338;8.520;2022-11-25T13:44:33;9.30;85.30
75113;DHT22;63692;47.338;8.520;2022-11-25T13:47:47;9.30;84.80
75113;DHT22;63692;47.338;8.520;2022-11-25T13:52:49;9.20;85.30
75113;DHT22;63692;47.338;8.520;2022-11-25T13:55:39;9.20;85.30
75113;DHT22;63692;47.338;8.520;2022-11-25T14:06:05;9.20;86.90
75113;DHT22;63692;47.338;8.520;2022-11-25T14:33:08;9.10;89.10
75113;DHT22;63692;47.338;8.520;2022-11-25T14:45:33;9.00;88.80
75113;DHT22;63692;47.338;8.520;2022-11-25T14:50:29;9.00;89.30
